sensor_id;sensor_type;location;lat;lon;timestamp;pressure;altitude;pressure_sealevel;temperature;humidity
44697;BME280;57264;47.480;19.354;2023-07-31T00:00:26;98807.19;;;16.07;100.00
44697;BME280;57264;47.480;19.354;2023-07-31T00:02:52;98813.28;;;16.07;100.00
44697;BME280;57264;47.480;19.354;2023-07-31T00:05:17;98818.28;;;16.04;100.00
44697;BME280;57264;47.480;19.354;2023-07-31T00:07:42;98813.19;;;15.97;100.00
44697;BME280;57264;47.480;19.354;2023-07-31T00:10:08;98811.13;;;15.77;100.00
44697;BME280;57264;47.480;19.354;2023-07-31T00:12:33;98822.06;;;15.59;100.00
44697;BME280;57264;47.480;19.354;2023-07-31T00:14:58;98825.03;;;15.46;100.00
44697;BME280;57264;47.480;19.354;2023-07-31T00:17:24;98826.59;;;15.42;100.00
44697;BME280;57264;47.480;19.354;2023-07-31T00:19:49;98823.34;;;15.57;100.00
44697;BME280;57264;47.480;19.354;2023-07-31T00:22:16;98814.78;;;15.71;100.00
44697;BME280;57264;47.480;19.354;2023-07-31T00:24:41;98813.91;;;15.66;100.00
44697;BME280;57264;47.480;19.354;2023-07-31T00:27:06;98826.97;;;15.51;100.00
44697;BME280;57264;47.480;19.354;2023-07-31T00:29:32;98823.78;;;15.49;100.00
44697;BME280;57264;47.480;19.354;2023-07-31T00:31:57;98830.22;;;15.58;100.00
44697;BME280;57264;47.480;19.354;2023-07-31T00:34:22;98821.19;;;15.54;100.00
44697;BME280;57264;47.480;19.354;2023-07-31T00:36:48;98821.06;;;15.65;100.00
44697;BME280;57264;47.480;19.354;2023-07-31T00:39:13;98821.50;;;15.57;100.00
44697;BME280;57264;47.480;19.354;2023-07-31T00:41:38;98821.53;;;15.19;100.00
44697;BME280;57264;47.480;19.354;2023-07-31T00:44:04;98817.19;;;15.08;100.00
44697;BME280;57264;47.480;19.354;2023-07-31T00:46:29;98821.13;;;15.27;100.00
44697;BME280;57264;47.480;19.354;2023-07-31T00:48:54;98817.97;;;15.30;100.00
44697;BME280;57264;47.480;19.354;2023-07-31T00:51:20;98820.91;;;15.50;100.00
44697;BME280;57264;47.480;19.354;2023-07-31T00:53:45;98802.84;;;15.69;100.00
44697;BME280;57264;47.480;19.354;2023-07-31T00:56:12;98810.38;;;15.82;100.00
44697;BME280;57264;47.480;19.354;2023-07-31T00:58:37;98804.66;;;15.90;100.00
44697;BME280;57264;47.480;19.354;2023-07-31T01:01:02;98804.66;;;15.90;100.00
44697;BME280;57264;47.480;19.354;2023-07-31T01:03:28;98803.38;;;15.93;100.00
44697;BME280;57264;47.480;19.354;2023-07-31T01:06:01;98805.50;;;15.96;100.00
44697;BME280;57264;47.480;19.354;2023-07-31T01:08:33;98805.16;;;15.87;100.00
44697;BME280;57264;47.480;19.354;2023-07-31T01:11:06;98808.97;;;16.01;100.00
44697;BME280;57264;47.480;19.354;2023-07-31T01:13:32;98813.19;;;15.97;100.00
44697;BME280;57264;47.480;19.354;2023-07-31T01:15:58;98804.81;;;15.78;100.00
44697;BME280;57264;47.480;19.354;2023-07-31T01:18:24;98808.63;;;15.44;100.00
44697;BME280;57264;47.480;19.354;2023-07-31T01:20:54;98807.78;;;15.60;100.00
44697;BME280;57264;47.480;19.354;2023-07-31T01:31:21;98822.66;;;15.23;100.00
44697;BME280;57264;47.480;19.354;2023-07-31T01:33:48;98823.31;;;14.91;100.00
44697;BME280;57264;47.480;19.354;2023-07-31T01:36:14;98821.56;;;14.80;100.00
44697;BME280;57264;47.480;19.354;2023-07-31T01:38:40;98818.25;;;14.90;100.00
44697;BME280;57264;47.480;19.354;2023-07-31T01:41:05;98816.94;;;15.31;100.00
44697;BME280;57264;47.480;19.354;2023-07-31T01:43:30;98814.16;;;15.42;100.00
44697;BME280;57264;47.480;19.354;2023-07-31T01:45:56;98818.25;;;15.50;100.00
44697;BME280;57264;47.480;19.354;2023-07-31T01:48:21;98813.19;;;15.70;100.00
44697;BME280;57264;47.480;19.354;2023-07-31T01:50:46;98805.75;;;15.67;100.00
44697;BME280;57264;47.480;19.354;2023-07-31T01:53:12;98805.00;;;15.72;100.00
44697;BME280;57264;47.480;19.354;2023-07-31T01:55:38;98801.66;;;15.81;100.00
44697;BME280;57264;47.480;19.354;2023-07-31T01:58:03;98806.47;;;15.41;100.00
44697;BME280;57264;47.480;19.354;2023-07-31T02:00:29;98812.31;;;15.21;100.00
44697;BME280;57264;47.480;19.354;2023-07-31T02:02:54;98817.94;;;14.86;100.00
44697;BME280;57264;47.480;19.354;2023-07-31T02:05:20;98812.34;;;14.83;100.00
44697;BME280;57264;47.480;19.354;2023-07-31T02:07:45;98821.41;;;14.70;100.00
44697;BME280;57264;47.480;19.354;2023-07-31T02:10:10;98818.22;;;14.51;100.00
44697;BME280;57264;47.480;19.354;2023-07-31T02:12:36;98811.81;;;14.47;100.00
44697;BME280;57264;47.480;19.354;2023-07-31T02:15:01;98814.47;;;14.47;100.00
44697;BME280;57264;47.480;19.354;2023-07-31T02:17:26;98815.09;;;14.38;100.00
44697;BME280;57264;47.480;19.354;2023-07-31T02:19:52;98813.78;;;14.24;100.00
44697;BME280;57264;47.480;19.354;2023-07-31T02:22:17;98804.44;;;14.49;100.00
44697;BME280;57264;47.480;19.354;2023-07-31T02:24:43;98810.03;;;14.70;100.00
44697;BME280;57264;47.480;19.354;2023-07-31T02:27:08;98804.53;;;14.93;100.00
44697;BME280;57264;47.480;19.354;2023-07-31T02:29:34;98799.31;;;14.98;100.00
44697;BME280;57264;47.480;19.354;2023-07-31T02:31:59;98803.22;;;14.40;100.00
44697;BME280;57264;47.480;19.354;2023-07-31T02:34:24;98805.16;;;14.62;100.00
44697;BME280;57264;47.480;19.354;2023-07-31T02:36:50;98805.72;;;15.02;100.00
44697;BME280;57264;47.480;19.354;2023-07-31T02:39:15;98806.31;;;14.87;100.00
44697;BME280;57264;47.480;19.354;2023-07-31T02:41:40;98806.97;;;14.78;100.00
44697;BME280;57264;47.480;19.354;2023-07-31T02:44:06;98800.63;;;15.17;100.00
44697;BME280;57264;47.480;19.354;2023-07-31T02:46:31;98803.38;;;15.06;100.00
44697;BME280;57264;47.480;19.354;2023-07-31T02:48:56;98800.81;;;15.11;100.00
44697;BME280;57264;47.480;19.354;2023-07-31T02:51:22;98805.19;;;15.43;100.00
44697;BME280;57264;47.480;19.354;2023-07-31T02:53:47;98809.97;;;15.46;100.00
44697;BME280;57264;47.480;19.354;2023-07-31T02:56:13;98810.78;;;15.25;100.00
44697;BME280;57264;47.480;19.354;2023-07-31T02:58:38;98808.56;;;14.95;100.00
44697;BME280;57264;47.480;19.354;2023-07-31T03:01:03;98815.91;;;14.93;100.00
44697;BME280;57264;47.480;19.354;2023-07-31T03:03:29;98813.72;;;15.07;100.00
44697;BME280;57264;47.480;19.354;2023-07-31T03:05:54;98817.19;;;15.08;100.00
44697;BME280;57264;47.480;19.354;2023-07-31T03:08:20;98819.94;;;14.96;100.00
44697;BME280;57264;47.480;19.354;2023-07-31T03:10:45;98826.34;;;14.83;100.00
44697;BME280;57264;47.480;19.354;2023-07-31T03:13:10;98824.34;;;14.90;100.00
44697;BME280;57264;47.480;19.354;2023-07-31T03:15:36;98828.59;;;14.91;100.00
44697;BME280;57264;47.480;19.354;2023-07-31T03:18:01;98826.53;;;15.15;100.00
44697;BME280;57264;47.480;19.354;2023-07-31T03:20:26;98830.00;;;15.21;100.00
44697;BME280;57264;47.480;19.354;2023-07-31T03:22:52;98839.44;;;15.33;100.00
44697;BME280;57264;47.480;19.354;2023-07-31T03:25:17;98846.41;;;15.39;100.00
44697;BME280;57264;47.480;19.354;2023-07-31T03:27:42;98842.28;;;15.49;100.00
44697;BME280;57264;47.480;19.354;2023-07-31T03:30:08;98844.56;;;15.62;100.00
44697;BME280;57264;47.480;19.354;2023-07-31T03:32:33;98839.88;;;15.69;100.00
44697;BME280;57264;47.480;19.354;2023-07-31T03:34:58;98843.38;;;15.74;100.00
44697;BME280;57264;47.480;19.354;2023-07-31T03:37:24;98847.88;;;15.74;100.00
44697;BME280;57264;47.480;19.354;2023-07-31T03:39:49;98846.28;;;15.73;100.00
44697;BME280;57264;47.480;19.354;2023-07-31T03:42:14;98845.00;;;15.75;100.00
44697;BME280;57264;47.480;19.354;2023-07-31T03:44:40;98847.00;;;15.90;100.00
44697;BME280;57264;47.480;19.354;2023-07-31T03:47:05;98843.91;;;15.98;100.00
44697;BME280;57264;47.480;19.354;2023-07-31T03:49:31;98847.91;;;16.01;100.00
44697;BME280;57264;47.480;19.354;2023-07-31T03:51:56;98854.50;;;15.98;100.00
44697;BME280;57264;47.480;19.354;2023-07-31T03:54:21;98845.28;;;16.01;100.00
44697;BME280;57264;47.480;19.354;2023-07-31T03:56:47;98854.50;;;15.98;100.00
44697;BME280;57264;47.480;19.354;2023-07-31T03:59:12;98845.59;;;16.09;100.00
44697;BME280;57264;47.480;19.354;2023-07-31T04:01:37;98841.34;;;16.35;100.00
44697;BME280;57264;47.480;19.354;2023-07-31T04:04:03;98842.25;;;16.51;100.00
44697;BME280;57264;47.480;19.354;2023-07-31T04:06:28;98836.84;;;16.67;100.00
44697;BME280;57264;47.480;19.354;2023-07-31T04:08:53;98838.78;;;16.82;100.00
44697;BME280;57264;47.480;19.354;2023-07-31T04:11:19;98843.09;;;16.93;100.00
44697;BME280;57264;47.480;19.354;2023-07-31T04:13:44;98843.72;;;17.05;100.00
44697;BME280;57264;47.480;19.354;2023-07-31T04:16:10;98844.81;;;17.14;100.00
44697;BME280;57264;47.480;19.354;2023-07-31T04:18:35;98842.00;;;17.31;100.00
44697;BME280;57264;47.480;19.354;2023-07-31T04:21:00;98845.47;;;17.37;100.00
44697;BME280;57264;47.480;19.354;2023-07-31T04:23:28;98840.81;;;17.59;100.00
44697;BME280;57264;47.480;19.354;2023-07-31T04:25:54;98835.59;;;17.89;97.05
44697;BME280;57264;47.480;19.354;2023-07-31T04:28:19;98835.09;;;20.84;82.21
44697;BME280;57264;47.480;19.354;2023-07-31T04:30:44;98830.50;;;23.14;69.86
44697;BME280;57264;47.480;19.354;2023-07-31T04:33:10;98836.66;;;21.80;72.69
44697;BME280;57264;47.480;19.354;2023-07-31T04:35:35;98835.31;;;20.88;77.54
44697;BME280;57264;47.480;19.354;2023-07-31T04:38:16;98830.47;;;21.66;75.27
44697;BME280;57264;47.480;19.354;2023-07-31T04:40:41;98835.22;;;20.98;77.33
44697;BME280;57264;47.480;19.354;2023-07-31T04:43:07;98845.66;;;20.37;80.33
44697;BME280;57264;47.480;19.354;2023-07-31T04:45:32;98845.88;;;20.40;80.96
44697;BME280;57264;47.480;19.354;2023-07-31T04:47:57;98840.53;;;21.27;76.45
44697;BME280;57264;47.480;19.354;2023-07-31T04:50:23;98834.09;;;23.10;69.95
44697;BME280;57264;47.480;19.354;2023-07-31T04:52:48;98841.91;;;23.06;67.90
44697;BME280;57264;47.480;19.354;2023-07-31T04:55:13;98841.72;;;22.38;69.62
44697;BME280;57264;47.480;19.354;2023-07-31T04:57:39;98840.59;;;23.86;64.74
44697;BME280;57264;47.480;19.354;2023-07-31T05:00:04;98843.97;;;22.63;69.11
44697;BME280;57264;47.480;19.354;2023-07-31T05:02:30;98845.78;;;22.17;71.67
44697;BME280;57264;47.480;19.354;2023-07-31T05:04:55;98845.69;;;23.32;64.81
44697;BME280;57264;47.480;19.354;2023-07-31T05:07:21;98838.78;;;24.31;61.95
44697;BME280;57264;47.480;19.354;2023-07-31T05:09:46;98838.78;;;26.74;53.72
44697;BME280;57264;47.480;19.354;2023-07-31T05:12:12;98855.50;;;23.10;65.03
44697;BME280;57264;47.480;19.354;2023-07-31T05:14:37;98849.56;;;22.48;67.43
44697;BME280;57264;47.480;19.354;2023-07-31T05:17:02;98854.13;;;21.30;70.37
44697;BME280;57264;47.480;19.354;2023-07-31T05:19:28;98855.66;;;21.13;72.55
44697;BME280;57264;47.480;19.354;2023-07-31T05:21:53;98863.25;;;19.89;77.15
44697;BME280;57264;47.480;19.354;2023-07-31T05:24:18;98862.63;;;19.53;79.75
44697;BME280;57264;47.480;19.354;2023-07-31T05:26:44;98864.41;;;20.22;76.56
44697;BME280;57264;47.480;19.354;2023-07-31T05:29:09;98858.25;;;19.77;78.33
44697;BME280;57264;47.480;19.354;2023-07-31T05:31:34;98864.66;;;19.76;79.34
44697;BME280;57264;47.480;19.354;2023-07-31T05:34:00;98870.63;;;19.43;79.83
44697;BME280;57264;47.480;19.354;2023-07-31T05:36:25;98878.38;;;19.98;77.44
44697;BME280;57264;47.480;19.354;2023-07-31T05:38:50;98866.13;;;23.56;65.07
44697;BME280;57264;47.480;19.354;2023-07-31T05:41:16;98850.69;;;24.69;59.21
44697;BME280;57264;47.480;19.354;2023-07-31T05:43:41;98848.50;;;24.93;57.63
44697;BME280;57264;47.480;19.354;2023-07-31T05:46:08;98860.44;;;22.38;65.32
44697;BME280;57264;47.480;19.354;2023-07-31T05:48:34;98854.31;;;23.43;62.64
44697;BME280;57264;47.480;19.354;2023-07-31T05:50:59;98846.69;;;25.11;54.96
44697;BME280;57264;47.480;19.354;2023-07-31T05:53:25;98853.69;;;25.69;52.42
44697;BME280;57264;47.480;19.354;2023-07-31T05:55:50;98863.72;;;24.53;53.36
44697;BME280;57264;47.480;19.354;2023-07-31T05:58:16;98873.19;;;21.66;64.33
44697;BME280;57264;47.480;19.354;2023-07-31T06:00:41;98872.50;;;22.35;61.85
44697;BME280;57264;47.480;19.354;2023-07-31T06:03:06;98874.34;;;21.36;63.46
44697;BME280;57264;47.480;19.354;2023-07-31T06:05:32;98868.69;;;20.57;66.29
44697;BME280;57264;47.480;19.354;2023-07-31T06:07:57;98880.94;;;20.58;66.67
44697;BME280;57264;47.480;19.354;2023-07-31T06:10:23;98875.00;;;21.23;64.26
44697;BME280;57264;47.480;19.354;2023-07-31T06:12:48;98878.59;;;21.37;63.66
44697;BME280;57264;47.480;19.354;2023-07-31T06:15:14;98873.66;;;21.26;61.57
44697;BME280;57264;47.480;19.354;2023-07-31T06:17:39;98877.50;;;21.15;62.87
44697;BME280;57264;47.480;19.354;2023-07-31T06:20:06;98877.28;;;21.35;60.04
44697;BME280;57264;47.480;19.354;2023-07-31T06:22:31;98884.56;;;20.72;60.83
44697;BME280;57264;47.480;19.354;2023-07-31T06:24:57;98894.00;;;20.15;63.79
44697;BME280;57264;47.480;19.354;2023-07-31T06:27:23;98895.06;;;20.14;63.91
44697;BME280;57264;47.480;19.354;2023-07-31T06:29:48;98895.97;;;19.94;63.55
44697;BME280;57264;47.480;19.354;2023-07-31T06:32:13;98888.41;;;20.17;63.88
44697;BME280;57264;47.480;19.354;2023-07-31T06:34:39;98877.94;;;20.64;61.55
44697;BME280;57264;47.480;19.354;2023-07-31T06:37:04;98881.38;;;20.36;61.50
44697;BME280;57264;47.480;19.354;2023-07-31T06:39:30;98880.75;;;21.12;58.07
44697;BME280;57264;47.480;19.354;2023-07-31T06:41:55;98874.09;;;21.99;55.39
44697;BME280;57264;47.480;19.354;2023-07-31T06:44:20;98874.06;;;21.80;55.66
44697;BME280;57264;47.480;19.354;2023-07-31T06:46:46;98877.63;;;22.51;52.50
44697;BME280;57264;47.480;19.354;2023-07-31T06:49:11;98878.44;;;21.95;54.01
44697;BME280;57264;47.480;19.354;2023-07-31T06:51:36;98880.06;;;22.66;51.86
44697;BME280;57264;47.480;19.354;2023-07-31T06:54:03;98879.28;;;21.90;53.16
44697;BME280;57264;47.480;19.354;2023-07-31T06:56:29;98880.66;;;22.44;51.70
44697;BME280;57264;47.480;19.354;2023-07-31T06:58:55;98887.34;;;22.79;50.62
44697;BME280;57264;47.480;19.354;2023-07-31T07:01:20;98886.97;;;22.85;51.51
44697;BME280;57264;47.480;19.354;2023-07-31T07:03:45;98886.03;;;23.09;49.11
44697;BME280;57264;47.480;19.354;2023-07-31T07:06:11;98895.69;;;23.37;48.54
44697;BME280;57264;47.480;19.354;2023-07-31T07:08:37;98889.69;;;22.48;51.74
44697;BME280;57264;47.480;19.354;2023-07-31T07:11:02;98894.44;;;21.76;53.22
44697;BME280;57264;47.480;19.354;2023-07-31T07:13:27;98900.34;;;22.16;53.00
44697;BME280;57264;47.480;19.354;2023-07-31T07:15:53;98892.91;;;22.50;51.15
44697;BME280;57264;47.480;19.354;2023-07-31T07:18:18;98897.47;;;21.88;51.48
44697;BME280;57264;47.480;19.354;2023-07-31T07:20:50;98899.31;;;22.49;50.24
44697;BME280;57264;47.480;19.354;2023-07-31T07:23:15;98891.09;;;22.46;49.61
44697;BME280;57264;47.480;19.354;2023-07-31T07:25:41;98889.56;;;22.39;50.74
44697;BME280;57264;47.480;19.354;2023-07-31T07:28:07;98903.47;;;21.57;52.38
44697;BME280;57264;47.480;19.354;2023-07-31T07:30:32;98904.09;;;21.25;52.87
44697;BME280;57264;47.480;19.354;2023-07-31T07:32:57;98896.84;;;21.30;54.18
44697;BME280;57264;47.480;19.354;2023-07-31T07:35:23;98902.59;;;20.51;56.52
44697;BME280;57264;47.480;19.354;2023-07-31T07:37:48;98905.56;;;20.78;56.56
44697;BME280;57264;47.480;19.354;2023-07-31T07:40:15;98910.47;;;20.32;59.02
44697;BME280;57264;47.480;19.354;2023-07-31T07:42:41;98918.38;;;20.42;58.97
44697;BME280;57264;47.480;19.354;2023-07-31T07:45:06;98918.19;;;20.34;59.79
44697;BME280;57264;47.480;19.354;2023-07-31T07:47:32;98915.97;;;20.46;59.38
44697;BME280;57264;47.480;19.354;2023-07-31T07:49:57;98921.09;;;20.27;60.91
44697;BME280;57264;47.480;19.354;2023-07-31T07:52:22;98914.47;;;20.30;61.19
44697;BME280;57264;47.480;19.354;2023-07-31T07:54:48;98920.94;;;20.14;60.74
44697;BME280;57264;47.480;19.354;2023-07-31T07:57:13;98916.56;;;20.38;61.20
44697;BME280;57264;47.480;19.354;2023-07-31T07:59:39;98911.97;;;20.43;59.91
44697;BME280;57264;47.480;19.354;2023-07-31T08:02:04;98903.69;;;20.50;59.91
44697;BME280;57264;47.480;19.354;2023-07-31T08:04:30;98896.53;;;21.03;58.52
44697;BME280;57264;47.480;19.354;2023-07-31T08:06:55;98892.13;;;20.60;60.13
44697;BME280;57264;47.480;19.354;2023-07-31T08:09:21;98890.06;;;20.85;57.85
44697;BME280;57264;47.480;19.354;2023-07-31T08:11:46;98892.28;;;21.31;55.12
44697;BME280;57264;47.480;19.354;2023-07-31T08:14:12;98888.72;;;22.25;52.02
44697;BME280;57264;47.480;19.354;2023-07-31T08:16:37;98893.50;;;22.10;53.03
44697;BME280;57264;47.480;19.354;2023-07-31T08:19:03;98888.06;;;22.84;49.99
44697;BME280;57264;47.480;19.354;2023-07-31T08:21:28;98895.47;;;22.55;49.16
44697;BME280;57264;47.480;19.354;2023-07-31T08:23:55;98899.19;;;22.03;49.15
44697;BME280;57264;47.480;19.354;2023-07-31T08:26:20;98893.97;;;21.93;49.29
44697;BME280;57264;47.480;19.354;2023-07-31T08:28:46;98892.28;;;21.31;50.45
44697;BME280;57264;47.480;19.354;2023-07-31T08:31:12;98895.75;;;21.31;51.55
44697;BME280;57264;47.480;19.354;2023-07-31T08:33:38;98893.50;;;21.15;50.93
44697;BME280;57264;47.480;19.354;2023-07-31T08:36:03;98888.09;;;21.25;50.60
44697;BME280;57264;47.480;19.354;2023-07-31T08:38:29;98887.69;;;22.03;48.95
44697;BME280;57264;47.480;19.354;2023-07-31T08:40:56;98894.28;;;22.80;46.74
44697;BME280;57264;47.480;19.354;2023-07-31T08:43:22;98881.25;;;22.92;45.88
44697;BME280;57264;47.480;19.354;2023-07-31T08:45:49;98885.00;;;22.59;45.50
44697;BME280;57264;47.480;19.354;2023-07-31T08:48:15;98876.22;;;23.18;44.99
44697;BME280;57264;47.480;19.354;2023-07-31T08:50:40;98877.66;;;23.43;43.42
44697;BME280;57264;47.480;19.354;2023-07-31T08:53:06;98886.22;;;22.66;43.56
44697;BME280;57264;47.480;19.354;2023-07-31T08:55:32;98881.97;;;22.28;45.48
44697;BME280;57264;47.480;19.354;2023-07-31T08:57:57;98882.41;;;22.54;44.52
44697;BME280;57264;47.480;19.354;2023-07-31T09:00:23;98891.03;;;22.64;46.28
44697;BME280;57264;47.480;19.354;2023-07-31T09:03:03;98869.50;;;23.48;42.90
44697;BME280;57264;47.480;19.354;2023-07-31T09:05:32;98875.19;;;22.54;44.27
44697;BME280;57264;47.480;19.354;2023-07-31T09:07:58;98880.88;;;22.66;44.41
44697;BME280;57264;47.480;19.354;2023-07-31T09:10:25;98880.06;;;23.12;43.76
44697;BME280;57264;47.480;19.354;2023-07-31T09:12:51;98871.50;;;23.56;43.62
44697;BME280;57264;47.480;19.354;2023-07-31T09:15:17;98867.69;;;23.84;43.12
44697;BME280;57264;47.480;19.354;2023-07-31T09:17:42;98877.31;;;23.17;44.31
44697;BME280;57264;47.480;19.354;2023-07-31T09:20:41;98862.41;;;23.93;44.25
44697;BME280;57264;47.480;19.354;2023-07-31T09:23:12;98867.09;;;23.87;44.22
44697;BME280;57264;47.480;19.354;2023-07-31T09:25:38;98872.75;;;23.72;43.16
44697;BME280;57264;47.480;19.354;2023-07-31T09:28:07;98868.88;;;23.10;43.62
44697;BME280;57264;47.480;19.354;2023-07-31T09:30:43;98869.06;;;24.53;41.67
44697;BME280;57264;47.480;19.354;2023-07-31T09:33:09;98862.75;;;23.77;42.74
44697;BME280;57264;47.480;19.354;2023-07-31T09:35:35;98864.22;;;23.29;42.63
44697;BME280;57264;47.480;19.354;2023-07-31T09:38:03;98862.50;;;22.92;43.44
44697;BME280;57264;47.480;19.354;2023-07-31T09:40:42;98865.03;;;24.20;42.69
44697;BME280;57264;47.480;19.354;2023-07-31T09:43:08;98861.13;;;23.90;42.56
44697;BME280;57264;47.480;19.354;2023-07-31T09:45:36;98860.16;;;24.22;43.89
44697;BME280;57264;47.480;19.354;2023-07-31T09:48:01;98866.91;;;24.19;40.67
44697;BME280;57264;47.480;19.354;2023-07-31T09:50:28;98854.97;;;23.90;40.92
44697;BME280;57264;47.480;19.354;2023-07-31T09:52:54;98865.44;;;23.64;42.94
44697;BME280;57264;47.480;19.354;2023-07-31T09:55:20;98860.06;;;23.09;43.82
44697;BME280;57264;47.480;19.354;2023-07-31T09:57:46;98881.19;;;23.11;43.48
44697;BME280;57264;47.480;19.354;2023-07-31T10:00:13;98858.19;;;23.78;42.53
44697;BME280;57264;47.480;19.354;2023-07-31T10:02:39;98856.00;;;24.16;43.29
44697;BME280;57264;47.480;19.354;2023-07-31T10:05:05;98856.91;;;23.48;39.75
44697;BME280;57264;47.480;19.354;2023-07-31T10:07:31;98857.59;;;23.26;43.00
44697;BME280;57264;47.480;19.354;2023-07-31T10:09:59;98857.69;;;24.12;42.14
44697;BME280;57264;47.480;19.354;2023-07-31T10:12:25;98854.09;;;24.30;42.15
44697;BME280;57264;47.480;19.354;2023-07-31T10:14:54;98849.06;;;23.65;42.91
44697;BME280;57264;47.480;19.354;2023-07-31T10:17:19;98848.03;;;24.24;41.84
44697;BME280;57264;47.480;19.354;2023-07-31T10:19:46;98855.25;;;24.38;41.84
44697;BME280;57264;47.480;19.354;2023-07-31T10:22:12;98852.56;;;24.02;41.16
44697;BME280;57264;47.480;19.354;2023-07-31T10:24:38;98843.09;;;24.62;41.13
44697;BME280;57264;47.480;19.354;2023-07-31T10:27:05;98854.38;;;24.95;40.52
44697;BME280;57264;47.480;19.354;2023-07-31T10:29:34;98853.81;;;24.40;40.21
44697;BME280;57264;47.480;19.354;2023-07-31T10:32:00;98853.81;;;24.40;39.72
44697;BME280;57264;47.480;19.354;2023-07-31T10:34:26;98839.28;;;24.63;39.57
44697;BME280;57264;47.480;19.354;2023-07-31T10:37:19;98852.19;;;24.75;39.51
44697;BME280;57264;47.480;19.354;2023-07-31T10:39:37;98852.56;;;24.02;41.81
44697;BME280;57264;47.480;19.354;2023-07-31T10:42:16;98855.72;;;24.62;40.64
44697;BME280;57264;47.480;19.354;2023-07-31T10:44:46;98845.06;;;24.12;40.05
44697;BME280;57264;47.480;19.354;2023-07-31T10:47:14;98848.47;;;24.18;40.21
44697;BME280;57264;47.480;19.354;2023-07-31T10:49:39;98851.25;;;23.99;40.74
44697;BME280;57264;47.480;19.354;2023-07-31T10:52:05;98849.81;;;24.51;41.45
44697;BME280;57264;47.480;19.354;2023-07-31T10:54:35;98859.38;;;24.08;40.77
44697;BME280;57264;47.480;19.354;2023-07-31T10:57:01;98864.81;;;24.30;40.95
44697;BME280;57264;47.480;19.354;2023-07-31T10:59:26;98849.56;;;24.17;40.82
44697;BME280;57264;47.480;19.354;2023-07-31T11:01:54;98859.19;;;24.40;41.33
44697;BME280;57264;47.480;19.354;2023-07-31T11:04:23;98852.00;;;24.49;41.98
44697;BME280;57264;47.480;19.354;2023-07-31T11:06:56;98851.44;;;24.61;41.07
44697;BME280;57264;47.480;19.354;2023-07-31T11:11:55;98842.38;;;24.48;42.38
44697;BME280;57264;47.480;19.354;2023-07-31T11:14:20;98843.31;;;24.75;42.73
44697;BME280;57264;47.480;19.354;2023-07-31T11:16:46;98845.22;;;24.52;42.97
44697;BME280;57264;47.480;19.354;2023-07-31T11:19:14;98842.06;;;24.50;41.90
44697;BME280;57264;47.480;19.354;2023-07-31T11:21:39;98837.72;;;24.62;40.94
44697;BME280;57264;47.480;19.354;2023-07-31T11:24:05;98844.00;;;24.36;42.04
44697;BME280;57264;47.480;19.354;2023-07-31T11:26:30;98842.81;;;24.06;40.52
44697;BME280;57264;47.480;19.354;2023-07-31T11:28:56;98836.38;;;23.44;43.67
44697;BME280;57264;47.480;19.354;2023-07-31T11:31:21;98843.63;;;24.06;41.08
44697;BME280;57264;47.480;19.354;2023-07-31T11:33:47;98829.84;;;24.66;41.51
44697;BME280;57264;47.480;19.354;2023-07-31T11:36:19;98824.00;;;24.86;41.57
44697;BME280;57264;47.480;19.354;2023-07-31T11:38:45;98824.84;;;24.73;41.32
44697;BME280;57264;47.480;19.354;2023-07-31T11:41:13;98833.16;;;24.63;41.72
44697;BME280;57264;47.480;19.354;2023-07-31T11:43:38;98823.47;;;24.84;41.33
44697;BME280;57264;47.480;19.354;2023-07-31T11:46:15;98824.28;;;25.24;41.07
44697;BME280;57264;47.480;19.354;2023-07-31T11:48:43;98816.31;;;24.71;41.63
44697;BME280;57264;47.480;19.354;2023-07-31T11:51:09;98819.88;;;25.28;40.66
44697;BME280;57264;47.480;19.354;2023-07-31T11:56:19;98827.34;;;25.00;40.88
44697;BME280;57264;47.480;19.354;2023-07-31T11:58:46;98824.06;;;25.03;41.68
44697;BME280;57264;47.480;19.354;2023-07-31T12:01:13;98813.75;;;24.97;40.77
44697;BME280;57264;47.480;19.354;2023-07-31T12:03:39;98817.19;;;24.89;41.10
44697;BME280;57264;47.480;19.354;2023-07-31T12:06:06;98818.03;;;24.76;39.78
44697;BME280;57264;47.480;19.354;2023-07-31T12:08:32;98814.84;;;24.96;40.07
44697;BME280;57264;47.480;19.354;2023-07-31T12:11:02;98815.13;;;25.25;40.10
44697;BME280;57264;47.480;19.354;2023-07-31T12:13:27;98824.09;;;25.12;39.37
44697;BME280;57264;47.480;19.354;2023-07-31T12:15:54;98805.50;;;24.85;37.61
44697;BME280;57264;47.480;19.354;2023-07-31T12:18:21;98804.53;;;25.29;39.40
44697;BME280;57264;47.480;19.354;2023-07-31T12:20:48;98801.19;;;24.75;40.67
44697;BME280;57264;47.480;19.354;2023-07-31T12:23:18;98797.31;;;24.90;40.29
44697;BME280;57264;47.480;19.354;2023-07-31T12:25:44;98784.00;;;25.24;40.71
44697;BME280;57264;47.480;19.354;2023-07-31T12:28:10;98797.19;;;25.51;40.47
44697;BME280;57264;47.480;19.354;2023-07-31T12:30:39;98801.69;;;25.25;39.62
44697;BME280;57264;47.480;19.354;2023-07-31T12:33:14;98799.53;;;24.96;40.40
44697;BME280;57264;47.480;19.354;2023-07-31T12:35:46;98789.22;;;25.29;40.83
44697;BME280;57264;47.480;19.354;2023-07-31T12:38:13;98785.72;;;25.11;40.65
44697;BME280;57264;47.480;19.354;2023-07-31T12:40:38;98783.59;;;25.00;39.48
44697;BME280;57264;47.480;19.354;2023-07-31T12:43:04;98784.75;;;25.90;38.94
44697;BME280;57264;47.480;19.354;2023-07-31T12:45:30;98794.53;;;25.03;39.57
44697;BME280;57264;47.480;19.354;2023-07-31T12:47:56;98777.25;;;24.87;40.49
44697;BME280;57264;47.480;19.354;2023-07-31T12:50:21;98783.06;;;25.29;39.03
44697;BME280;57264;47.480;19.354;2023-07-31T12:52:47;98781.63;;;25.23;40.07
44697;BME280;57264;47.480;19.354;2023-07-31T12:55:13;98766.34;;;25.49;39.92